Web Počasí Slunečno.cz™ (Podmínky, ePrivacy) používá cookies a personalizace pro reklamní účely. Pohybem po stránce vyjadřujete souhlas. Odejít

Aktuální počasí v Česku a ve světě - METAR

Seznam meteostanic umístěných nejčasteji na letišti v ČR a ve světě

Vyhledat místa podle abecedy:
A B C D E F G H I J K L M N O P Q R S T U V W X Y Z

Filtrovat:

ID stanice:
a/nebo
Název místa (fulltext):
 
Místo (ID)Naposledy načteno 
Náměšť nad Oslavou (Namest n/O) 04.12.2021 10:00 UTC Zobrazit data
Místo: Náměšť nad Oslavou
Teplota: -2 °C (pocitová: -12 °C)
Vítr: 5 m/s z(e) 130°
Počasí: sněží
Dohlednost: 7 km
Zákl. oblačnosti: 2/8 210 m;8/8 1410 m
Vlhkost: 93%
N'Djamena (FTTJ) 04.12.2021 10:00 UTC Zobrazit METAR
FTTJ 041000Z 02012KT 8000 NSC 33/01 Q1012 NOSIG
Nairobi (HKJK) 04.12.2021 10:00 UTC Zobrazit METAR
HKJK 041000Z 04009KT 9999 BKN025 21/15 Q1022 NOSIG
Nantes/ Atlantique (LFRS) 04.12.2021 08:00 UTC Zobrazit METAR
LFRS 040800Z AUTO 28010KT CAVOK 10/07 Q1006 TEMPO 30015G30KT 3000 SHRA BKN012 SCT020CB
Nassau (MYNN) 04.12.2021 10:00 UTC Zobrazit METAR
MYNN 041000Z 00000KT 9999 SCT035 16/16 A3010
Nauru (ANAU) Zatím nenačteno  
Nausori (NFNA) 04.12.2021 10:00 UTC Zobrazit METAR
NFNA 041000Z 00000KT 9999 SCT020 25/23 Q1009
New York (KNYC) 04.12.2021 09:51 UTC Zobrazit METAR
KNYC 040951Z AUTO 00000KT 10SM OVC080 03/M06 A3013 RMK AO2 SLP194 T00331061
Newcastle (EGNT) 04.12.2021 09:50 UTC Zobrazit METAR
EGNT 040950Z 20004KT 8000 -RA BKN028 04/02 Q0988
Niamey (DRRN) 04.12.2021 10:00 UTC Zobrazit METAR
DRRN 041000Z 06010KT 4200 DU NSC 31/M01 Q1014 NOSIG
Nice/ Cote D'Azur (LFMN) 04.12.2021 10:00 UTC Zobrazit METAR
LFMN 041000Z 32007KT 9999 FEW030 SCT140 11/M02 Q1010 NOSIG
Niue Island (NIUE) 04.12.2021 10:00 UTC Zobrazit METAR
NIUE 041000Z AUTO 30002KT // 24/23 Q1010
Nizhny Novgorod (UWGG) 13.10.2017 15:00 UTC Zobrazit METAR
UWGG 131500Z 9000 NSC 10/07 Q1006 R18R/290050 NOSIG RMK QFE747
North Caicos I. (MBNC) Zatím nenačteno  
Nouakchott (GQNN) 23.06.2016 11:00 UTC Zobrazit METAR
GQNN 231100Z 23009KT 180V250 7000 BKN010 25/18 Q1013 NOSIG
Noumea (NWWM) Zatím nenačteno  
Nuku'alofa (NFTF) 04.12.2021 10:00 UTC Zobrazit METAR
NFTF 041000Z 07007KT 9999 FEW017 26/25 Q1011
Reklama

Reklama


Newslettter

Počasí na Váš email

Každý den Vám pošleme předpověď
Emaily chodí ráno a bez reklamy



Odhlásit newsletter

Reklama